createdAt,value
2022-10-07T01:28:55.815Z,99.90
2022-10-07T01:54:44.733Z,99.90
2022-10-07T02:24:36.030Z,99.90
2022-10-07T02:40:12.055Z,99.90
2022-10-07T03:50:49.290Z,99.90
2022-10-07T04:11:33.374Z,99.90
2022-10-07T04:41:45.034Z,99.90
2022-10-07T05:37:48.837Z,99.90
2022-10-07T06:13:19.255Z,99.90
2022-10-07T07:19:21.901Z,99.90
2022-10-07T07:49:43.331Z,97.90
2022-10-07T08:30:23.425Z,93.70
2022-10-07T09:45:52.664Z,83.80
2022-10-07T10:16:36.233Z,80.00
2022-10-07T11:27:49.748Z,77.80
2022-10-07T11:53:04.685Z,78.10
2022-10-07T11:57:35.560Z,77.80
2022-10-07T12:33:06.934Z,77.90
2022-10-07T12:53:45.962Z,78.00
2022-10-07T13:49:38.436Z,77.30
2022-10-07T14:20:05.713Z,80.70
2022-10-07T14:50:24.461Z,83.40
2022-10-07T15:15:54.320Z,85.20
2022-10-07T15:36:21.704Z,87.20
2022-10-07T16:11:10.951Z,96.40
2022-10-07T16:36:29.643Z,99.90
2022-10-07T17:07:06.533Z,99.90
2022-10-07T17:32:21.538Z,99.90
2022-10-07T17:47:50.352Z,99.90
2022-10-07T18:17:58.558Z,99.90
2022-10-07T19:09:18.567Z,99.90
2022-10-07T19:29:37.468Z,99.90
2022-10-07T20:04:31.421Z,99.90
2022-10-07T20:35:20.746Z,99.90
2022-10-07T20:54:57.594Z,99.90
2022-10-07T21:00:33.141Z,99.90
2022-10-07T21:04:54.547Z,99.90
2022-10-07T21:30:18.269Z,99.90
2022-10-07T21:51:21.880Z,99.90
2022-10-07T21:55:43.262Z,99.90
2022-10-07T22:11:23.169Z,99.90
2022-10-07T22:36:42.721Z,99.90
2022-10-07T23:12:05.920Z,99.90
